createdAt,value
2022-12-04T00:01:20.133Z,14.30
2022-12-04T00:03:46.737Z,14.60
2022-12-04T00:06:18.135Z,14.60
2022-12-04T00:08:45.685Z,15.05
2022-12-04T00:11:15.181Z,15.18
2022-12-04T00:13:42.366Z,16.42
2022-12-04T00:16:12.551Z,15.48
2022-12-04T00:18:39.674Z,16.48
2022-12-04T00:21:08.435Z,15.98
2022-12-04T00:23:36.884Z,16.42
2022-12-04T00:26:05.745Z,16.50
2022-12-04T00:28:32.885Z,16.23
2022-12-04T00:30:59.451Z,14.70
2022-12-04T00:33:26.769Z,16.90
2022-12-04T00:36:01.358Z,15.90
2022-12-04T00:38:28.829Z,15.85
2022-12-04T00:40:55.633Z,16.30
2022-12-04T00:43:23.517Z,15.85
2022-12-04T00:45:51.182Z,16.98
2022-12-04T00:48:17.909Z,17.80
2022-12-04T00:50:44.998Z,18.83
2022-12-04T00:53:12.456Z,16.63
2022-12-04T00:55:43.345Z,16.48
2022-12-04T00:58:10.780Z,15.52
2022-12-04T01:00:40.133Z,16.35
2022-12-04T01:03:07.715Z,16.95
2022-12-04T01:05:44.204Z,19.25
2022-12-04T01:08:11.871Z,17.45
2022-12-04T01:10:40.693Z,16.23
2022-12-04T01:13:07.136Z,16.25
2022-12-04T01:15:34.283Z,16.02
2022-12-04T01:18:00.669Z,17.55
2022-12-04T01:20:27.207Z,16.63
2022-12-04T01:22:54.619Z,17.02
2022-12-04T01:25:21.536Z,16.08
2022-12-04T01:27:48.452Z,17.02
2022-12-04T01:30:15.211Z,16.60
2022-12-04T01:32:41.667Z,16.25
2022-12-04T01:35:09.221Z,16.33
2022-12-04T01:37:36.187Z,15.63
2022-12-04T01:40:03.637Z,15.77
2022-12-04T01:42:50.296Z,15.65
2022-12-04T01:45:50.445Z,16.08
2022-12-04T01:48:50.282Z,16.38
2022-12-04T01:51:41.364Z,17.87
2022-12-04T01:54:32.323Z,17.02
2022-12-04T01:57:21.693Z,16.27
2022-12-04T02:00:00.914Z,16.93
2022-12-04T02:02:36.964Z,16.83
2022-12-04T02:05:07.112Z,17.77
2022-12-04T02:07:34.253Z,16.88
2022-12-04T02:10:06.148Z,17.92
2022-12-04T02:12:42.874Z,17.27
2022-12-04T02:15:35.617Z,17.27
2022-12-04T02:18:33.317Z,18.52
2022-12-04T02:21:28.878Z,17.77
2022-12-04T02:24:20.706Z,18.33
2022-12-04T02:26:53.794Z,20.83
2022-12-04T02:29:42.208Z,17.25
2022-12-04T02:32:36.729Z,18.33
2022-12-04T02:35:09.549Z,18.10
2022-12-04T02:37:40.035Z,17.13
2022-12-04T02:42:58.230Z,18.92
2022-12-04T02:45:37.908Z,17.52
2022-12-04T02:48:07.885Z,17.38
2022-12-04T02:50:39.791Z,17.70
2022-12-04T02:53:14.977Z,17.50
2022-12-04T02:55:50.784Z,17.83
2022-12-04T02:58:52.162Z,17.83
2022-12-04T03:01:25.096Z,18.27
2022-12-04T03:03:58.007Z,17.50
2022-12-04T03:06:27.917Z,17.65
2022-12-04T03:09:03.307Z,19.08
2022-12-04T03:11:34.652Z,18.50
2022-12-04T03:14:10.654Z,18.02
2022-12-04T03:16:42.532Z,17.50
2022-12-04T03:19:17.298Z,17.00
2022-12-04T03:21:54.596Z,14.90
2022-12-04T03:24:29.352Z,16.05
2022-12-04T03:27:03.772Z,17.05
2022-12-04T03:29:46.747Z,16.75
2022-12-04T03:32:24.024Z,16.73
2022-12-04T03:35:19.928Z,15.77
2022-12-04T03:37:58.275Z,14.88
2022-12-04T03:40:42.142Z,14.70
2022-12-04T03:43:16.549Z,14.65
2022-12-04T03:45:48.942Z,15.73
2022-12-04T03:48:53.178Z,15.60
2022-12-04T03:51:47.169Z,14.68
2022-12-04T03:54:35.333Z,15.23
2022-12-04T03:57:28.533Z,15.57
2022-12-04T04:00:06.042Z,15.55
2022-12-04T04:02:52.619Z,12.07
2022-12-04T04:05:20.371Z,12.18
2022-12-04T04:07:52.000Z,12.68
2022-12-04T04:10:26.528Z,13.70
2022-12-04T04:13:21.357Z,14.73
2022-12-04T04:16:11.635Z,12.52
2022-12-04T04:21:50.803Z,11.43
2022-12-04T04:24:38.738Z,11.45
2022-12-04T04:27:06.111Z,11.93
2022-12-04T04:29:32.836Z,12.60
2022-12-04T04:32:02.134Z,14.35
2022-12-04T04:35:03.860Z,13.18
2022-12-04T04:37:40.044Z,11.75
2022-12-04T04:40:23.751Z,12.02
2022-12-04T04:43:05.705Z,13.52
2022-12-04T04:45:45.514Z,12.75
2022-12-04T04:48:18.293Z,12.77
2022-12-04T04:50:45.716Z,12.18
2022-12-04T04:53:18.521Z,11.88
2022-12-04T04:55:45.634Z,12.38
2022-12-04T04:58:16.225Z,11.43
2022-12-04T05:03:21.073Z,11.35
2022-12-04T05:05:47.796Z,11.23
2022-12-04T05:08:14.330Z,10.75
2022-12-04T05:10:40.842Z,11.32
2022-12-04T05:13:09.098Z,11.00
2022-12-04T05:15:35.789Z,10.07
2022-12-04T05:18:02.557Z,10.95
2022-12-04T05:20:29.126Z,10.85
2022-12-04T05:22:56.044Z,10.02
2022-12-04T05:25:22.761Z,9.52
2022-12-04T05:27:49.454Z,9.82
2022-12-04T05:30:16.505Z,9.02
2022-12-04T05:32:43.561Z,9.60
2022-12-04T05:35:11.623Z,9.63
2022-12-04T05:37:40.925Z,9.00
2022-12-04T05:40:08.598Z,9.48
2022-12-04T05:42:35.418Z,9.18
2022-12-04T05:45:02.353Z,9.73
2022-12-04T05:47:28.824Z,9.48
2022-12-04T05:49:55.774Z,10.45
2022-12-04T05:52:22.756Z,10.10
2022-12-04T05:54:49.189Z,10.30
2022-12-04T05:57:15.646Z,9.25
2022-12-04T05:59:42.131Z,9.88
2022-12-04T06:02:08.903Z,9.30
2022-12-04T06:04:37.436Z,9.18
2022-12-04T06:07:04.036Z,8.98
2022-12-04T06:09:30.749Z,8.55
2022-12-04T06:11:58.699Z,9.30
2022-12-04T06:14:25.466Z,8.80
2022-12-04T06:16:52.089Z,9.00
2022-12-04T06:19:20.399Z,10.27
2022-12-04T06:21:49.657Z,9.25
2022-12-04T06:24:21.553Z,8.45
2022-12-04T06:27:18.856Z,8.52
2022-12-04T06:29:35.234Z,9.10
2022-12-04T06:32:01.855Z,8.88
2022-12-04T06:34:28.613Z,8.77
2022-12-04T06:36:55.568Z,8.75
2022-12-04T06:39:22.493Z,8.60
2022-12-04T06:41:49.159Z,9.32
2022-12-04T06:44:16.536Z,9.10
2022-12-04T06:46:47.228Z,8.65
2022-12-04T06:49:14.588Z,9.00
2022-12-04T06:51:41.639Z,9.48
2022-12-04T06:54:10.184Z,10.02
2022-12-04T06:56:36.620Z,10.15
2022-12-04T06:59:04.453Z,9.77
2022-12-04T07:01:33.338Z,9.10
2022-12-04T07:04:01.143Z,9.27
2022-12-04T07:06:33.721Z,8.88
2022-12-04T07:09:03.079Z,9.10
2022-12-04T07:11:30.645Z,8.75
2022-12-04T07:13:57.626Z,8.82
2022-12-04T07:16:26.000Z,9.73
2022-12-04T07:18:56.429Z,9.93
2022-12-04T07:21:25.991Z,9.77
2022-12-04T07:23:55.120Z,10.33
2022-12-04T07:26:23.284Z,9.27
2022-12-04T07:28:50.789Z,10.32
2022-12-04T07:31:20.280Z,9.85
2022-12-04T07:33:47.681Z,9.85
2022-12-04T07:36:16.603Z,9.93
2022-12-04T07:38:44.159Z,9.38
2022-12-04T07:41:13.350Z,8.80
2022-12-04T07:43:40.792Z,9.15
2022-12-04T07:46:13.291Z,9.80
2022-12-04T07:48:40.359Z,10.32
2022-12-04T07:51:09.686Z,8.93
2022-12-04T07:53:36.955Z,8.57
2022-12-04T07:56:04.863Z,9.30
2022-12-04T07:58:32.653Z,9.52
2022-12-04T08:01:24.350Z,9.23
2022-12-04T08:03:54.953Z,9.07
2022-12-04T08:08:50.187Z,7.65
2022-12-04T08:11:19.950Z,8.98
2022-12-04T08:13:47.219Z,9.10
2022-12-04T08:16:15.052Z,10.25
2022-12-04T08:18:46.744Z,10.35
2022-12-04T08:21:16.272Z,9.23
2022-12-04T08:23:44.356Z,9.75
2022-12-04T08:26:12.260Z,8.50
2022-12-04T08:28:41.334Z,9.25
2022-12-04T08:31:14.956Z,10.13
2022-12-04T08:33:43.142Z,9.70
2022-12-04T08:36:12.225Z,9.63
2022-12-04T08:38:39.720Z,9.18
2022-12-04T08:41:08.778Z,9.32
2022-12-04T08:43:35.259Z,9.57
2022-12-04T08:46:05.111Z,8.85
2022-12-04T08:48:32.833Z,10.20
2022-12-04T08:50:59.936Z,9.30
2022-12-04T08:53:26.405Z,10.13
2022-12-04T08:55:53.322Z,9.07
2022-12-04T08:58:20.046Z,8.52
2022-12-04T09:00:46.864Z,9.55
2022-12-04T09:03:15.900Z,9.38
2022-12-04T09:05:45.707Z,9.15
2022-12-04T09:08:17.568Z,9.57
2022-12-04T09:10:44.393Z,9.57
2022-12-04T09:13:11.111Z,9.10
2022-12-04T09:15:41.328Z,9.35
2022-12-04T09:18:09.190Z,10.85
2022-12-04T09:20:36.773Z,12.20
2022-12-04T09:23:05.455Z,12.50
2022-12-04T09:25:36.209Z,9.15
2022-12-04T09:28:04.316Z,11.50
2022-12-04T09:30:31.019Z,10.25
2022-12-04T09:32:57.743Z,8.95
2022-12-04T09:35:24.243Z,13.93
2022-12-04T09:37:51.160Z,10.65
2022-12-04T09:40:38.862Z,9.98
2022-12-04T09:43:26.081Z,9.20
2022-12-04T09:45:58.446Z,9.65
2022-12-04T09:48:36.557Z,9.98
2022-12-04T09:51:06.821Z,9.85
2022-12-04T09:56:17.225Z,8.90
2022-12-04T09:59:22.363Z,9.65
2022-12-04T10:02:00.408Z,10.98
2022-12-04T10:04:26.980Z,10.38
2022-12-04T10:07:15.909Z,8.60
2022-12-04T10:09:50.640Z,12.38
2022-12-04T10:12:41.040Z,10.52
2022-12-04T10:15:31.094Z,9.65
2022-12-04T10:18:03.629Z,9.45
2022-12-04T10:20:50.188Z,10.15
2022-12-04T10:23:29.329Z,10.13
2022-12-04T10:25:56.193Z,9.43
2022-12-04T10:28:28.733Z,9.68
2022-12-04T10:31:00.521Z,9.13
2022-12-04T10:33:47.514Z,9.50
2022-12-04T10:36:19.624Z,9.23
2022-12-04T10:38:57.267Z,8.48
2022-12-04T10:41:36.278Z,9.38
2022-12-04T10:44:03.096Z,8.85
2022-12-04T10:46:32.923Z,9.40
2022-12-04T10:49:03.021Z,10.07
2022-12-04T10:51:38.585Z,10.30
2022-12-04T10:54:15.727Z,13.13
2022-12-04T10:57:00.627Z,13.45
2022-12-04T10:59:28.887Z,13.55
2022-12-04T11:02:16.212Z,12.90
2022-12-04T11:04:43.423Z,13.32
2022-12-04T11:07:21.466Z,13.13
2022-12-04T11:10:06.695Z,12.88
2022-12-04T11:12:34.023Z,13.63
2022-12-04T11:15:14.695Z,13.13
2022-12-04T11:20:16.474Z,12.85
2022-12-04T11:22:57.658Z,13.55
2022-12-04T11:25:31.959Z,14.02
2022-12-04T11:28:01.299Z,13.10
2022-12-04T11:30:36.927Z,14.20
2022-12-04T11:33:06.345Z,13.70
2022-12-04T11:35:33.068Z,13.13
2022-12-04T11:38:02.443Z,14.82
2022-12-04T11:40:30.162Z,13.30
2022-12-04T11:43:06.445Z,13.50
2022-12-04T11:45:33.785Z,13.73
2022-12-04T11:48:04.934Z,14.05
2022-12-04T11:50:58.034Z,14.18
2022-12-04T11:53:39.887Z,14.95
2022-12-04T11:56:21.753Z,14.27
2022-12-04T11:59:07.914Z,16.80
2022-12-04T12:01:47.562Z,14.77
2022-12-04T12:04:23.783Z,14.75
2022-12-04T12:06:58.840Z,14.75
2022-12-04T12:09:35.180Z,14.32
2022-12-04T12:12:10.216Z,15.07
2022-12-04T12:14:58.525Z,14.82
2022-12-04T12:17:51.417Z,14.90
2022-12-04T12:20:37.317Z,14.82
2022-12-04T12:23:30.857Z,16.02
2022-12-04T12:26:09.010Z,15.13
2022-12-04T12:28:44.808Z,16.15
2022-12-04T12:31:30.009Z,15.27
2022-12-04T12:34:14.659Z,16.23
2022-12-04T12:36:47.473Z,15.32
2022-12-04T12:39:25.222Z,15.77
2022-12-04T12:42:01.613Z,16.80
2022-12-04T12:44:57.576Z,15.40
2022-12-04T12:47:30.560Z,16.38
2022-12-04T12:50:03.603Z,16.58
2022-12-04T12:52:35.077Z,16.23
2022-12-04T12:55:18.008Z,15.38
2022-12-04T12:57:49.657Z,16.98
2022-12-04T13:00:19.975Z,17.02
2022-12-04T13:02:53.446Z,18.48
2022-12-04T13:05:43.089Z,16.92
2022-12-04T13:08:27.647Z,16.70
2022-12-04T13:11:18.214Z,16.75
2022-12-04T13:16:28.697Z,15.30
2022-12-04T13:19:17.997Z,16.52
2022-12-04T13:21:53.577Z,16.35
2022-12-04T13:24:57.726Z,16.63
2022-12-04T13:27:55.821Z,18.70
2022-12-04T13:30:41.313Z,17.25
2022-12-04T13:33:42.002Z,16.38
2022-12-04T13:36:30.157Z,18.17
2022-12-04T13:39:11.917Z,18.08
2022-12-04T13:41:39.251Z,19.63
2022-12-04T13:44:22.379Z,18.15
2022-12-04T13:47:24.526Z,18.50
2022-12-04T13:49:52.279Z,17.90
2022-12-04T13:52:24.384Z,17.02
2022-12-04T13:54:58.995Z,19.83
2022-12-04T13:57:27.312Z,19.52
2022-12-04T14:00:08.267Z,20.05
2022-12-04T14:02:50.687Z,19.95
2022-12-04T14:05:27.500Z,23.48
2022-12-04T14:08:07.273Z,19.50
2022-12-04T14:10:38.663Z,19.80
2022-12-04T14:13:14.473Z,20.05
2022-12-04T14:15:41.477Z,19.50
2022-12-04T14:18:10.667Z,18.73
2022-12-04T14:20:38.888Z,19.30
2022-12-04T14:23:16.323Z,19.27
2022-12-04T14:25:42.943Z,18.67
2022-12-04T14:28:24.888Z,19.30
2022-12-04T14:31:12.724Z,18.95
2022-12-04T14:33:45.176Z,20.13
2022-12-04T14:36:20.460Z,21.27
2022-12-04T14:38:50.835Z,20.15
2022-12-04T14:41:25.232Z,18.95
2022-12-04T14:43:52.276Z,20.42
2022-12-04T14:46:52.993Z,19.70
2022-12-04T14:52:13.085Z,20.23
2022-12-04T14:55:16.015Z,19.13
2022-12-04T14:58:21.437Z,18.73
2022-12-04T15:00:53.636Z,22.83
2022-12-04T15:03:21.431Z,20.42
2022-12-04T15:05:49.850Z,18.20
2022-12-04T15:08:17.144Z,21.48
2022-12-04T15:11:09.273Z,21.73
2022-12-04T15:13:38.161Z,19.15
2022-12-04T15:16:23.221Z,19.08
2022-12-04T15:18:56.329Z,18.98
2022-12-04T15:21:28.480Z,18.40
2022-12-04T15:23:54.992Z,19.50
2022-12-04T15:26:24.383Z,19.80
2022-12-04T15:28:51.934Z,19.67
2022-12-04T15:31:25.883Z,20.10
2022-12-04T15:33:59.804Z,18.85
2022-12-04T15:37:07.579Z,19.30
2022-12-04T15:39:35.670Z,19.40
2022-12-04T15:42:24.934Z,19.48
2022-12-04T15:45:01.173Z,19.33
2022-12-04T15:47:50.130Z,18.52
2022-12-04T15:50:16.478Z,18.65
2022-12-04T15:53:03.930Z,18.77
2022-12-04T15:55:36.535Z,17.83
2022-12-04T15:58:26.697Z,19.48
2022-12-04T16:01:06.359Z,19.30
2022-12-04T16:03:47.600Z,18.40
2022-12-04T16:08:57.051Z,17.83
2022-12-04T16:11:30.435Z,17.63
2022-12-04T16:14:08.739Z,18.58
2022-12-04T16:16:38.318Z,18.08
2022-12-04T16:19:16.677Z,18.17
2022-12-04T16:21:44.084Z,17.92
2022-12-04T16:24:13.160Z,17.48
2022-12-04T16:26:40.553Z,16.85
2022-12-04T16:29:07.346Z,17.70
2022-12-04T16:31:34.238Z,16.77
2022-12-04T16:34:00.768Z,17.83
2022-12-04T16:36:27.195Z,16.90
2022-12-04T16:38:53.812Z,16.52
2022-12-04T16:41:21.245Z,17.67
2022-12-04T16:43:55.835Z,17.80
2022-12-04T16:46:24.488Z,16.98
2022-12-04T16:48:51.268Z,18.40
2022-12-04T16:51:21.404Z,18.48
2022-12-04T16:53:48.986Z,19.08
2022-12-04T16:56:15.513Z,17.77
2022-12-04T16:58:42.221Z,20.27
2022-12-04T17:01:28.270Z,17.65
2022-12-04T17:03:55.073Z,18.60
2022-12-04T17:06:21.646Z,16.83
2022-12-04T17:08:48.190Z,16.58
2022-12-04T17:11:16.583Z,17.00
2022-12-04T17:13:43.766Z,17.92
2022-12-04T17:16:14.661Z,18.45
2022-12-04T17:18:42.538Z,20.15
2022-12-04T17:21:11.392Z,19.92
2022-12-04T17:23:38.640Z,19.52
2022-12-04T17:26:08.361Z,17.80
2022-12-04T17:28:36.368Z,18.13
2022-12-04T17:31:04.631Z,18.52
2022-12-04T17:33:31.610Z,19.58
2022-12-04T17:36:00.159Z,19.27
2022-12-04T17:38:27.682Z,17.75
2022-12-04T17:41:02.804Z,19.63
2022-12-04T17:43:31.221Z,18.80
2022-12-04T17:45:58.700Z,18.95
2022-12-04T17:48:37.132Z,17.70
2022-12-04T17:51:15.562Z,17.70
2022-12-04T17:53:42.913Z,19.33
2022-12-04T17:56:12.383Z,19.50
2022-12-04T17:58:39.345Z,19.95
2022-12-04T18:01:08.633Z,20.08
2022-12-04T18:03:37.548Z,17.95
2022-12-04T18:06:15.136Z,20.20
2022-12-04T18:08:46.605Z,20.88
2022-12-04T18:11:18.581Z,19.35
2022-12-04T18:13:44.946Z,19.42
2022-12-04T18:16:11.564Z,18.83
2022-12-04T18:18:38.544Z,18.70
2022-12-04T18:21:09.362Z,18.25
2022-12-04T18:23:37.698Z,17.50
2022-12-04T18:26:04.888Z,18.27
2022-12-04T18:28:31.790Z,18.00
2022-12-04T18:31:06.421Z,19.02
2022-12-04T18:33:35.056Z,19.10
2022-12-04T18:36:02.515Z,17.73
2022-12-04T18:38:30.893Z,17.88
2022-12-04T18:41:05.314Z,18.98
2022-12-04T18:43:36.424Z,17.20
2022-12-04T18:46:07.709Z,16.95
2022-12-04T18:48:35.498Z,16.30
2022-12-04T18:51:01.966Z,17.40
2022-12-04T18:53:28.405Z,16.85
2022-12-04T18:55:54.876Z,17.02
2022-12-04T18:58:22.813Z,17.95
2022-12-04T19:00:51.643Z,16.90
2022-12-04T19:03:18.400Z,19.08
2022-12-04T19:05:49.509Z,19.08
2022-12-04T19:08:17.196Z,18.10
2022-12-04T19:10:43.717Z,17.88
2022-12-04T19:13:10.481Z,18.80
2022-12-04T19:15:42.239Z,18.00
2022-12-04T19:18:09.099Z,18.05
2022-12-04T19:20:35.511Z,18.00
2022-12-04T19:23:02.302Z,17.67
2022-12-04T19:25:29.132Z,17.73
2022-12-04T19:27:56.200Z,17.92
2022-12-04T19:30:22.903Z,17.98
2022-12-04T19:32:49.471Z,18.75
2022-12-04T19:35:16.013Z,18.90
2022-12-04T19:37:44.817Z,18.65
2022-12-04T19:40:14.879Z,18.80
2022-12-04T19:42:41.517Z,16.95
2022-12-04T19:45:08.411Z,17.80
2022-12-04T19:47:35.011Z,19.02
2022-12-04T19:50:02.092Z,19.98
2022-12-04T19:52:28.665Z,19.75
2022-12-04T19:54:55.715Z,18.88
2022-12-04T19:57:22.485Z,17.90
2022-12-04T19:59:49.117Z,17.90
2022-12-04T20:02:15.764Z,18.90
2022-12-04T20:04:43.176Z,20.15
2022-12-04T20:07:10.034Z,18.60
2022-12-04T20:09:36.449Z,17.70
2022-12-04T20:12:03.498Z,18.02
2022-12-04T20:14:30.042Z,19.52
2022-12-04T20:16:57.211Z,18.10
2022-12-04T20:19:23.839Z,18.10
2022-12-04T20:21:56.127Z,20.15
2022-12-04T20:24:25.755Z,19.55
2022-12-04T20:26:52.701Z,20.00
2022-12-04T20:29:19.220Z,18.75
2022-12-04T20:31:47.012Z,20.42
2022-12-04T20:34:18.079Z,20.23
2022-12-04T20:36:46.984Z,20.77
2022-12-04T20:39:15.122Z,20.02
2022-12-04T20:41:41.980Z,19.02
2022-12-04T20:44:12.032Z,20.27
2022-12-04T20:46:39.938Z,20.83
2022-12-04T20:49:10.183Z,30.50
2022-12-04T20:51:40.011Z,24.63
2022-12-04T20:54:07.765Z,21.77
2022-12-04T20:56:36.825Z,24.00
2022-12-04T20:59:07.977Z,23.85
2022-12-04T21:01:35.812Z,21.15
2022-12-04T21:04:03.965Z,21.42
2022-12-04T21:06:36.021Z,20.23
2022-12-04T21:09:08.552Z,19.05
2022-12-04T21:11:42.161Z,21.15
2022-12-04T21:14:36.686Z,20.25
2022-12-04T21:17:04.478Z,21.63
2022-12-04T21:19:32.026Z,22.75
2022-12-04T21:21:58.991Z,21.42
2022-12-04T21:24:28.620Z,21.95
2022-12-04T21:26:55.501Z,20.63
2022-12-04T21:29:22.632Z,20.95
2022-12-04T21:31:49.150Z,22.38
2022-12-04T21:34:17.555Z,21.00
2022-12-04T21:36:46.093Z,21.52
2022-12-04T21:39:14.751Z,20.90
2022-12-04T21:42:00.101Z,20.25
2022-12-04T21:44:26.990Z,21.95
2022-12-04T21:46:53.993Z,21.92
2022-12-04T21:49:20.603Z,22.05
2022-12-04T21:51:57.245Z,22.20
2022-12-04T21:54:24.898Z,22.73
2022-12-04T21:56:51.500Z,22.63
2022-12-04T21:59:18.236Z,21.80
2022-12-04T22:01:44.801Z,23.77
2022-12-04T22:04:11.836Z,22.20
2022-12-04T22:06:38.353Z,23.23
2022-12-04T22:09:10.276Z,22.17
2022-12-04T22:11:37.815Z,22.08
2022-12-04T22:14:04.642Z,22.80
2022-12-04T22:16:33.786Z,22.35
2022-12-04T22:19:02.276Z,23.23
2022-12-04T22:21:29.010Z,23.00
2022-12-04T22:23:57.290Z,23.55
2022-12-04T22:26:28.075Z,24.17
2022-12-04T22:28:55.064Z,23.92
2022-12-04T22:31:24.178Z,24.33
2022-12-04T22:33:54.232Z,23.52
2022-12-04T22:36:23.970Z,22.40
2022-12-04T22:39:09.861Z,24.65
2022-12-04T22:41:37.591Z,23.30
2022-12-04T22:44:04.615Z,23.27
2022-12-04T22:46:31.739Z,23.35
2022-12-04T22:48:59.313Z,25.15
2022-12-04T22:51:26.988Z,24.60
2022-12-04T22:53:55.880Z,23.30
2022-12-04T22:56:29.170Z,22.70
2022-12-04T22:58:57.662Z,24.88
2022-12-04T23:01:26.685Z,23.33
2022-12-04T23:03:53.582Z,23.02
2022-12-04T23:06:21.752Z,23.77
2022-12-04T23:08:48.425Z,24.00
2022-12-04T23:11:18.530Z,22.30
2022-12-04T23:13:50.357Z,24.40
2022-12-04T23:16:20.333Z,23.17
2022-12-04T23:21:15.002Z,25.27
2022-12-04T23:23:43.455Z,24.40
2022-12-04T23:26:13.518Z,24.15
2022-12-04T23:28:40.249Z,24.35
2022-12-04T23:31:07.482Z,23.70
2022-12-04T23:33:34.335Z,24.88
2022-12-04T23:36:02.590Z,24.17
2022-12-04T23:38:29.725Z,25.08
2022-12-04T23:41:02.338Z,24.65
2022-12-04T23:43:29.102Z,24.35
2022-12-04T23:45:56.142Z,25.13
2022-12-04T23:48:22.890Z,24.02
2022-12-04T23:50:49.345Z,24.55
2022-12-04T23:53:15.984Z,23.63
2022-12-04T23:55:42.762Z,23.27
2022-12-04T23:58:09.542Z,23.75
